Página principal
METAR-TAF:

METAR-TAF

Aeroportos :

La Palma, Espanha

latitude: 28-37N, longitude: 017-45W, altura: 29 m

Observação actual do tempo

O boletim foi feito há 32 minutos, às 23:00 UTC
Vento 14 kt de norte
Temperatura 18°C
Humidade 73%
Pressão 1020 hPa
Visibilidade 10 km ou mais
Nuvens dispersasa uma altura de 2800 ft
Nuvens fragmentadasa uma altura de 3300 ft
Nuvens fragmentadasa uma altura de 4600 ft

METAR: GCLA 152300Z AUTO 35014KT 9999 SCT028 BKN033 BKN046 18/13 Q1020

Hora: 23:32 (23:32 UTC)

Previsão

O boletim foi feito há 3 horas e 32 minutos, às 20:00 UTC
Previsão válida de 15 às 21 UTC a 16 às 21 UTC
Vento 17 kt de nor-nordeste
Visibilidade 10 km ou mais
Nuvens fragmentadasa uma altura de 3500 ft
Probabilidade 30% :
Temporariamente
de 15 às 21 UTC a 16 às 09 UTC
Visibilidade: 4900 m
chuva

TAF: GCLA 152000Z 1521/1621 02017KT 9999 BKN035 TX21/1614Z TN17/1606Z PROB30 TEMPO 1521/1609 4900 RA

Observações e previsões do tempo de mais de 4000 aeroportos (mensagens METAR e TAF).

As estações disponíveis são os pontos amarelos e vermelhos sobre o mapa.

Mova o rato sobre o mapa para ver o nome da estação.

Depois clique no ponto para visualizar as observações e previsões meteorológicas.

Para alterar o mapa : clique nos botões verdes com uma cruz preta para aumentar o zoom; no botão verde com uma pitada de zoom; ou nas setas verdes para mapas adjacentes.


METAR-TAF: